• Join FlightAware (Why Join?)
  • Login
  • US Flag 
04:48PM EDT


 

Airport Tracker/Info


-or-


 

Live Flight TrackerFlight Track Log ✈ SKW5517 ✈ 27-Apr-2013 ✈ KDEN - KPSP

Flight Track Log - Related Links

Times and Time Zones

All times are in EDT time to prevent confusion due to time zone crossing. See the SKW5517 flight status page for this flight to view local times or setup timezone preferences in your user account.

Time Position Orientation Groundspeed Altitude Reporting Facility
EDT Latitude Longitude Course Direction KTS MPH feet Rate Location/Type
09:27PM 39.6302 -105.2162 241° Southwest  Level Estimated
09:28PM 39.5719 -105.3514 241° Southwest  Level Estimated
09:29PM 39.5135 -105.4864 241° Southwest  Level Estimated
09:30PM 39.4549 -105.6211 241° Southwest  Level Estimated
09:31PM 39.3962 -105.7556 241° Southwest  Level Estimated
09:32PM 39.3373 -105.8899 240° Southwest  Level Estimated
09:33PM 39.2783 -106.0239 240° Southwest  Level Estimated
09:34PM 39.2191 -106.1578 240° Southwest  Level Estimated
09:35PM 39.1597 -106.2914 240° Southwest  Level Estimated
09:36PM 39.1002 -106.4248 240° Southwest  Level Estimated
09:37PM 39.0406 -106.5579 240° Southwest  Level Estimated
09:38PM 38.9808 -106.6908 240° Southwest  Level Estimated
09:39PM 38.9208 -106.8235 240° Southwest  Level Estimated
09:40PM 38.8607 -106.9560 240° Southwest  Level Estimated
09:41PM 38.8005 -107.0883 240° Southwest  Level Estimated
09:42PM 38.7401 -107.2203 240° Southwest  Level Estimated
09:43PM 38.6795 -107.3521 240° Southwest  Level Estimated
09:44PM 38.6188 -107.4837 239° Southwest  Level Estimated
09:45PM 38.5580 -107.6151 239° Southwest  Level Estimated
09:46PM 38.4970 -107.7462 239° Southwest  Level Estimated
09:47PM 38.4358 -107.8771 239° Southwest  Level Estimated
09:48PM 38.3746 -108.0078 239° Southwest  Level Estimated
09:49PM 38.3131 -108.1383 239° Southwest  Level Estimated
09:50PM 38.2516 -108.2685 239° Southwest  Level Estimated
09:51PM 38.1898 -108.3986 239° Southwest  Level Estimated
09:52PM 38.1280 -108.5284 239° Southwest  Level Estimated
09:53PM 38.0660 -108.6580 239° Southwest  Level Estimated
09:54PM 38.0038 -108.7874 239° Southwest  Level Estimated
09:55PM 37.9416 -108.9165 239° Southwest  Level Estimated
09:56PM 37.8791 -109.0454 239° Southwest  Level Estimated
09:57PM 37.8166 -109.1741 238° Southwest  Level Estimated
09:58PM 37.7538 -109.3027 238° Southwest  Level Estimated
09:59PM 37.6910 -109.4309 238° Southwest  Level Estimated
10:00PM 37.6280 -109.5590 238° Southwest  Level Estimated
10:01PM 37.5649 -109.6868 238° Southwest  Level Estimated
10:02PM 37.5017 -109.8145 238° Southwest  Level Estimated
10:03PM 37.4383 -109.9419 238° Southwest  Level Estimated
10:04PM 37.3747 -110.0691 238° Southwest  Level Estimated
10:05PM 37.3111 -110.1961 238° Southwest  Level Estimated
10:06PM 37.2472 -110.3228 238° Southwest  Level Estimated
10:07PM 37.1833 -110.4494 238° Southwest  Level Estimated
10:08PM 37.1192 -110.5757 238° Southwest  Level Estimated
10:09PM 37.0550 -110.7018 237° Southwest  Level Estimated
10:10PM 36.9907 -110.8278 237° Southwest  Level Estimated
10:11PM 36.9262 -110.9535 237° Southwest  Level Estimated
10:12PM 36.8616 -111.0789 237° Southwest  Level Estimated
10:13PM 36.7969 -111.2042 237° Southwest  Level Estimated
10:14PM 36.7320 -111.3293 237° Southwest  Level Estimated
10:15PM 36.6670 -111.4541 237° Southwest  Level Estimated
10:16PM 36.6019 -111.5788 237° Southwest  Level Estimated
10:17PM 36.5366 -111.7032 237° Southwest  Level Estimated
10:18PM 36.4712 -111.8274 237° Southwest  Level Estimated
10:19PM 36.4057 -111.9514 237° Southwest  Level Estimated
10:20PM 36.3401 -112.0752 237° Southwest  Level Estimated
10:21PM 36.2743 -112.1988 237° Southwest  Level Estimated
10:22PM 36.2084 -112.3222 237° Southwest  Level Estimated
10:23PM 36.1424 -112.4454 236° Southwest  Level Estimated
10:24PM 36.0762 -112.5683 236° Southwest  Level Estimated
10:25PM 36.0099 -112.6911 236° Southwest  Level Estimated
10:26PM 35.9435 -112.8136 236° Southwest  Level Estimated
10:27PM 35.8770 -112.9360 236° Southwest  Level Estimated
10:28PM 35.8103 -113.0581 236° Southwest  Level Estimated
10:29PM 35.7436 -113.1801 236° Southwest  Level Estimated
10:30PM 35.6767 -113.3018 236° Southwest  Level Estimated
10:31PM 35.6097 -113.4233 236° Southwest  Level Estimated
10:32PM 35.5425 -113.5446 236° Southwest  Level Estimated
10:33PM 35.4753 -113.6658 236° Southwest  Level Estimated
10:34PM 35.4079 -113.7867 236° Southwest  Level Estimated
10:35PM 35.3404 -113.9074 236° Southwest  Level Estimated
10:36PM 35.2728 -114.0279 236° Southwest  Level Estimated
10:37PM 35.2050 -114.1482 235° Southwest  Level Estimated
10:38PM 35.1372 -114.2683 235° Southwest  Level Estimated
10:39PM 35.0692 -114.3882 235° Southwest  Level Estimated
10:40PM 35.0011 -114.5079 235° Southwest  Level Estimated
10:41PM 34.9329 -114.6275 235° Southwest  Level Estimated
10:42PM 34.8645 -114.7468 235° Southwest  Level Estimated
10:43PM 34.7961 -114.8659 235° Southwest  Level Estimated
10:44PM 34.7275 -114.9848 235° Southwest  Level Estimated
10:45PM 34.6589 -115.1035 235° Southwest  Level Estimated
10:46PM 34.5901 -115.2221 235° Southwest  Level Estimated
10:47PM 34.5211 -115.3404 235° Southwest  Level Estimated
10:48PM 34.4521 -115.4585 235° Southwest  Level Estimated
10:49PM 34.3830 -115.5764 235° Southwest  Level Estimated
10:50PM 34.3137 -115.6942 235° Southwest  Level Estimated
10:51PM 34.2444 -115.8117 235° Southwest  Level Estimated
10:52PM 34.1749 -115.9291 234° Southwest  Level Estimated
10:53PM 34.1053 -116.0462 234° Southwest  Level Estimated
10:54PM 34.0356 -116.1632 234° Southwest  Level Estimated
10:55PM 33.9658 -116.2800 234° Southwest  Level Estimated
10:56PM 33.8959 -116.3966 234° Southwest  Level Estimated
10:57PM 33.8297 -116.5067 234° Southwest  Level Estimated
10:58PM 33.8297 -116.5067 228° Southwest  Level Estimated
10:59PM 33.8297 -116.5067 228° Southwest  Level Estimated
11:00PM 33.8297 -116.5067 228° Southwest  Level Estimated
11:01PM 33.8297 -116.5067 228° Southwest  Level Estimated
11:02PM 33.8297 -116.5067 228° Southwest  Level Estimated
11:03PM 33.8297 -116.5067 228° Southwest  Level Estimated
11:04PM 33.8297 -116.5067 228° Southwest  Level Estimated
11:05PM 33.8297 -116.5067 228° Southwest  Level Estimated